sensor_id;sensor_type;location;lat;lon;timestamp;temperature;humidity
1988;DHT22;12775;46.994;15.498;2023-04-24T00:00:11;13.70;93.90
1988;DHT22;12775;46.994;15.498;2023-04-24T00:02:39;13.70;94.80
1988;DHT22;12775;46.994;15.498;2023-04-24T00:05:08;13.60;94.00
1988;DHT22;12775;46.994;15.498;2023-04-24T00:07:35;13.60;94.50
1988;DHT22;12775;46.994;15.498;2023-04-24T00:10:03;13.50;94.70
1988;DHT22;12775;46.994;15.498;2023-04-24T00:12:30;13.40;95.10
1988;DHT22;12775;46.994;15.498;2023-04-24T00:14:58;13.40;94.90
1988;DHT22;12775;46.994;15.498;2023-04-24T00:17:25;13.40;94.70
1988;DHT22;12775;46.994;15.498;2023-04-24T00:19:54;13.30;94.60
1988;DHT22;12775;46.994;15.498;2023-04-24T00:22:22;13.30;94.10
1988;DHT22;12775;46.994;15.498;2023-04-24T00:24:49;13.30;94.30
1988;DHT22;12775;46.994;15.498;2023-04-24T00:27:17;13.20;94.90
1988;DHT22;12775;46.994;15.498;2023-04-24T00:29:44;13.20;94.10
1988;DHT22;12775;46.994;15.498;2023-04-24T00:32:11;13.20;92.90
1988;DHT22;12775;46.994;15.498;2023-04-24T00:34:39;13.10;92.90
1988;DHT22;12775;46.994;15.498;2023-04-24T00:37:06;13.10;93.20
1988;DHT22;12775;46.994;15.498;2023-04-24T00:39:33;12.90;93.40
1988;DHT22;12775;46.994;15.498;2023-04-24T00:42:01;12.90;93.30
1988;DHT22;12775;46.994;15.498;2023-04-24T00:44:27;12.90;93.30
1988;DHT22;12775;46.994;15.498;2023-04-24T00:46:55;12.90;93.90
1988;DHT22;12775;46.994;15.498;2023-04-24T00:49:22;12.90;94.90
1988;DHT22;12775;46.994;15.498;2023-04-24T00:51:48;12.90;94.70
1988;DHT22;12775;46.994;15.498;2023-04-24T00:54:16;12.80;95.40
1988;DHT22;12775;46.994;15.498;2023-04-24T00:56:43;12.80;94.90
1988;DHT22;12775;46.994;15.498;2023-04-24T00:59:10;12.80;95.20
1988;DHT22;12775;46.994;15.498;2023-04-24T01:01:36;12.80;95.30
1988;DHT22;12775;46.994;15.498;2023-04-24T01:04:04;12.70;95.20
1988;DHT22;12775;46.994;15.498;2023-04-24T01:06:30;12.70;95.80
1988;DHT22;12775;46.994;15.498;2023-04-24T01:08:58;12.70;95.80
1988;DHT22;12775;46.994;15.498;2023-04-24T01:11:24;12.70;96.10
1988;DHT22;12775;46.994;15.498;2023-04-24T01:13:50;12.60;95.50
1988;DHT22;12775;46.994;15.498;2023-04-24T01:16:17;12.60;96.50
1988;DHT22;12775;46.994;15.498;2023-04-24T01:18:43;12.60;96.10
1988;DHT22;12775;46.994;15.498;2023-04-24T01:21:10;12.60;96.00
1988;DHT22;12775;46.994;15.498;2023-04-24T01:23:37;12.60;95.30
1988;DHT22;12775;46.994;15.498;2023-04-24T01:26:03;12.60;95.80
1988;DHT22;12775;46.994;15.498;2023-04-24T01:28:31;12.50;96.40
1988;DHT22;12775;46.994;15.498;2023-04-24T01:30:58;12.50;95.90
1988;DHT22;12775;46.994;15.498;2023-04-24T01:33:25;12.50;95.90
1988;DHT22;12775;46.994;15.498;2023-04-24T01:35:53;12.50;95.80
1988;DHT22;12775;46.994;15.498;2023-04-24T01:38:20;12.50;95.80
1988;DHT22;12775;46.994;15.498;2023-04-24T01:40:47;12.50;94.90
1988;DHT22;12775;46.994;15.498;2023-04-24T01:43:15;12.50;96.00
1988;DHT22;12775;46.994;15.498;2023-04-24T01:45:42;12.40;95.50
1988;DHT22;12775;46.994;15.498;2023-04-24T01:48:13;12.40;96.10
1988;DHT22;12775;46.994;15.498;2023-04-24T01:50:41;12.40;95.90
1988;DHT22;12775;46.994;15.498;2023-04-24T01:53:08;12.40;95.20
1988;DHT22;12775;46.994;15.498;2023-04-24T01:55:36;12.30;95.60
1988;DHT22;12775;46.994;15.498;2023-04-24T01:58:03;12.30;95.60
1988;DHT22;12775;46.994;15.498;2023-04-24T02:00:30;12.30;95.60
1988;DHT22;12775;46.994;15.498;2023-04-24T02:02:57;12.20;95.50
1988;DHT22;12775;46.994;15.498;2023-04-24T02:05:25;12.20;95.20
1988;DHT22;12775;46.994;15.498;2023-04-24T02:07:52;12.20;95.60
1988;DHT22;12775;46.994;15.498;2023-04-24T02:10:20;12.20;96.00
1988;DHT22;12775;46.994;15.498;2023-04-24T02:12:47;12.10;95.80
1988;DHT22;12775;46.994;15.498;2023-04-24T02:15:14;12.20;95.60
1988;DHT22;12775;46.994;15.498;2023-04-24T02:17:42;12.20;96.70
1988;DHT22;12775;46.994;15.498;2023-04-24T02:20:09;12.20;96.40
1988;DHT22;12775;46.994;15.498;2023-04-24T02:22:37;12.20;96.40
1988;DHT22;12775;46.994;15.498;2023-04-24T02:25:05;12.20;96.20
1988;DHT22;12775;46.994;15.498;2023-04-24T02:27:32;12.20;96.30
1988;DHT22;12775;46.994;15.498;2023-04-24T02:29:59;12.20;96.60
1988;DHT22;12775;46.994;15.498;2023-04-24T02:32:28;12.20;96.30
1988;DHT22;12775;46.994;15.498;2023-04-24T02:34:55;12.20;95.60
1988;DHT22;12775;46.994;15.498;2023-04-24T02:37:23;12.20;95.30
1988;DHT22;12775;46.994;15.498;2023-04-24T02:39:50;12.20;94.80
1988;DHT22;12775;46.994;15.498;2023-04-24T02:42:17;12.10;94.90
1988;DHT22;12775;46.994;15.498;2023-04-24T02:44:45;12.10;95.80
1988;DHT22;12775;46.994;15.498;2023-04-24T02:47:12;12.10;95.80
1988;DHT22;12775;46.994;15.498;2023-04-24T02:49:40;12.10;95.80
1988;DHT22;12775;46.994;15.498;2023-04-24T02:52:08;12.10;95.40
1988;DHT22;12775;46.994;15.498;2023-04-24T02:54:35;12.10;95.70
1988;DHT22;12775;46.994;15.498;2023-04-24T02:57:02;12.00;95.50
1988;DHT22;12775;46.994;15.498;2023-04-24T02:59:29;12.00;96.70
1988;DHT22;12775;46.994;15.498;2023-04-24T03:01:57;12.00;97.00
1988;DHT22;12775;46.994;15.498;2023-04-24T03:04:26;12.00;96.80
1988;DHT22;12775;46.994;15.498;2023-04-24T03:06:53;12.00;96.50
1988;DHT22;12775;46.994;15.498;2023-04-24T03:09:20;12.00;96.50
1988;DHT22;12775;46.994;15.498;2023-04-24T03:11:47;12.00;96.50
1988;DHT22;12775;46.994;15.498;2023-04-24T03:14:14;12.00;96.10
1988;DHT22;12775;46.994;15.498;2023-04-24T03:16:42;12.00;95.40
1988;DHT22;12775;46.994;15.498;2023-04-24T03:19:09;11.90;96.00
1988;DHT22;12775;46.994;15.498;2023-04-24T03:21:36;11.90;96.00
1988;DHT22;12775;46.994;15.498;2023-04-24T03:24:04;11.90;96.30
1988;DHT22;12775;46.994;15.498;2023-04-24T03:26:32;11.90;96.80
1988;DHT22;12775;46.994;15.498;2023-04-24T03:28:59;11.90;96.70
1988;DHT22;12775;46.994;15.498;2023-04-24T03:31:26;11.90;96.60
1988;DHT22;12775;46.994;15.498;2023-04-24T03:33:53;11.90;96.50
1988;DHT22;12775;46.994;15.498;2023-04-24T03:36:21;11.90;96.30
1988;DHT22;12775;46.994;15.498;2023-04-24T03:38:48;12.00;96.60
1988;DHT22;12775;46.994;15.498;2023-04-24T03:41:16;12.00;95.80
1988;DHT22;12775;46.994;15.498;2023-04-24T03:43:43;12.00;95.70
1988;DHT22;12775;46.994;15.498;2023-04-24T03:46:10;12.00;96.70
1988;DHT22;12775;46.994;15.498;2023-04-24T03:48:38;12.00;96.50
1988;DHT22;12775;46.994;15.498;2023-04-24T03:51:04;12.00;96.50
1988;DHT22;12775;46.994;15.498;2023-04-24T03:53:32;12.00;96.40
1988;DHT22;12775;46.994;15.498;2023-04-24T03:55:59;11.90;97.70
1988;DHT22;12775;46.994;15.498;2023-04-24T03:58:26;11.90;97.70
1988;DHT22;12775;46.994;15.498;2023-04-24T04:00:54;11.90;97.50
1988;DHT22;12775;46.994;15.498;2023-04-24T04:03:21;11.90;97.10
1988;DHT22;12775;46.994;15.498;2023-04-24T04:05:51;11.80;97.20
1988;DHT22;12775;46.994;15.498;2023-04-24T04:08:18;11.80;97.70
1988;DHT22;12775;46.994;15.498;2023-04-24T04:10:45;11.80;97.50
1988;DHT22;12775;46.994;15.498;2023-04-24T04:13:12;11.80;97.50
1988;DHT22;12775;46.994;15.498;2023-04-24T04:15:39;11.80;97.50
1988;DHT22;12775;46.994;15.498;2023-04-24T04:18:07;11.80;97.30
1988;DHT22;12775;46.994;15.498;2023-04-24T04:20:34;11.80;97.20
1988;DHT22;12775;46.994;15.498;2023-04-24T04:23:01;11.80;97.00
1988;DHT22;12775;46.994;15.498;2023-04-24T04:25:29;11.80;97.20
1988;DHT22;12775;46.994;15.498;2023-04-24T04:27:56;11.80;97.10
1988;DHT22;12775;46.994;15.498;2023-04-24T04:30:23;11.80;96.90
1988;DHT22;12775;46.994;15.498;2023-04-24T04:32:51;11.80;96.60
1988;DHT22;12775;46.994;15.498;2023-04-24T04:35:18;11.80;97.20
1988;DHT22;12775;46.994;15.498;2023-04-24T04:37:45;11.80;97.20
1988;DHT22;12775;46.994;15.498;2023-04-24T04:40:12;11.80;97.40
1988;DHT22;12775;46.994;15.498;2023-04-24T04:42:40;11.70;97.50
1988;DHT22;12775;46.994;15.498;2023-04-24T04:45:07;11.70;97.50
1988;DHT22;12775;46.994;15.498;2023-04-24T04:47:35;11.70;98.50
1988;DHT22;12775;46.994;15.498;2023-04-24T04:50:03;11.70;98.50
1988;DHT22;12775;46.994;15.498;2023-04-24T04:52:31;11.70;99.20
1988;DHT22;12775;46.994;15.498;2023-04-24T04:54:59;11.70;99.90
1988;DHT22;12775;46.994;15.498;2023-04-24T04:57:28;11.60;99.90
1988;DHT22;12775;46.994;15.498;2023-04-24T04:59:56;11.60;99.90
1988;DHT22;12775;46.994;15.498;2023-04-24T05:02:23;11.60;99.90
1988;DHT22;12775;46.994;15.498;2023-04-24T05:04:51;11.70;99.90
1988;DHT22;12775;46.994;15.498;2023-04-24T05:07:18;11.60;99.90
1988;DHT22;12775;46.994;15.498;2023-04-24T05:09:47;11.70;99.90
1988;DHT22;12775;46.994;15.498;2023-04-24T05:12:15;11.70;99.90
1988;DHT22;12775;46.994;15.498;2023-04-24T05:14:42;11.70;99.90
1988;DHT22;12775;46.994;15.498;2023-04-24T05:17:08;11.80;99.90
1988;DHT22;12775;46.994;15.498;2023-04-24T05:19:36;11.80;99.90
1988;DHT22;12775;46.994;15.498;2023-04-24T05:22:02;11.80;99.90
1988;DHT22;12775;46.994;15.498;2023-04-24T05:24:29;11.90;99.90
1988;DHT22;12775;46.994;15.498;2023-04-24T05:26:58;12.00;99.90
1988;DHT22;12775;46.994;15.498;2023-04-24T05:29:25;12.00;99.90
1988;DHT22;12775;46.994;15.498;2023-04-24T05:31:54;12.00;99.90
1988;DHT22;12775;46.994;15.498;2023-04-24T05:34:22;12.00;99.90
1988;DHT22;12775;46.994;15.498;2023-04-24T05:36:49;12.00;99.90
1988;DHT22;12775;46.994;15.498;2023-04-24T05:39:17;12.00;99.90
1988;DHT22;12775;46.994;15.498;2023-04-24T05:41:45;12.00;99.90
1988;DHT22;12775;46.994;15.498;2023-04-24T05:44:12;12.00;99.90
1988;DHT22;12775;46.994;15.498;2023-04-24T05:46:40;11.90;99.90
1988;DHT22;12775;46.994;15.498;2023-04-24T05:49:08;12.00;99.90
1988;DHT22;12775;46.994;15.498;2023-04-24T05:51:35;12.00;99.90
1988;DHT22;12775;46.994;15.498;2023-04-24T05:54:03;12.10;99.90
1988;DHT22;12775;46.994;15.498;2023-04-24T05:56:30;12.00;99.90
1988;DHT22;12775;46.994;15.498;2023-04-24T05:58:57;12.00;99.90
1988;DHT22;12775;46.994;15.498;2023-04-24T06:01:23;12.10;99.90
1988;DHT22;12775;46.994;15.498;2023-04-24T06:03:51;12.20;99.90
1988;DHT22;12775;46.994;15.498;2023-04-24T06:06:18;12.20;99.90
1988;DHT22;12775;46.994;15.498;2023-04-24T06:08:45;12.30;99.90
1988;DHT22;12775;46.994;15.498;2023-04-24T06:11:14;12.40;99.90
1988;DHT22;12775;46.994;15.498;2023-04-24T06:13:41;12.50;99.90
1988;DHT22;12775;46.994;15.498;2023-04-24T06:16:08;12.40;99.90
1988;DHT22;12775;46.994;15.498;2023-04-24T06:18:36;12.60;99.90
1988;DHT22;12775;46.994;15.498;2023-04-24T06:21:03;12.60;99.90
1988;DHT22;12775;46.994;15.498;2023-04-24T06:23:31;12.60;99.90
1988;DHT22;12775;46.994;15.498;2023-04-24T06:25:59;12.60;99.90
1988;DHT22;12775;46.994;15.498;2023-04-24T06:28:25;12.70;99.90
1988;DHT22;12775;46.994;15.498;2023-04-24T06:30:52;12.80;99.90
1988;DHT22;12775;46.994;15.498;2023-04-24T06:33:21;12.80;99.90
1988;DHT22;12775;46.994;15.498;2023-04-24T06:35:47;12.80;99.90
1988;DHT22;12775;46.994;15.498;2023-04-24T06:38:15;12.90;99.90
1988;DHT22;12775;46.994;15.498;2023-04-24T06:40:42;12.90;99.90
1988;DHT22;12775;46.994;15.498;2023-04-24T06:43:11;13.00;99.90
1988;DHT22;12775;46.994;15.498;2023-04-24T06:45:39;13.10;99.90
1988;DHT22;12775;46.994;15.498;2023-04-24T06:48:05;13.10;99.90
1988;DHT22;12775;46.994;15.498;2023-04-24T06:50:33;13.40;99.90
1988;DHT22;12775;46.994;15.498;2023-04-24T06:53:04;13.60;99.90
1988;DHT22;12775;46.994;15.498;2023-04-24T06:55:30;13.60;99.90
1988;DHT22;12775;46.994;15.498;2023-04-24T06:57:57;13.90;99.90
1988;DHT22;12775;46.994;15.498;2023-04-24T07:00:24;13.90;99.90
1988;DHT22;12775;46.994;15.498;2023-04-24T07:02:51;14.10;99.90
1988;DHT22;12775;46.994;15.498;2023-04-24T07:05:19;14.20;99.90
1988;DHT22;12775;46.994;15.498;2023-04-24T07:07:47;14.30;99.90
1988;DHT22;12775;46.994;15.498;2023-04-24T07:10:14;14.30;99.90
1988;DHT22;12775;46.994;15.498;2023-04-24T07:12:42;14.30;99.90
1988;DHT22;12775;46.994;15.498;2023-04-24T07:15:10;14.40;99.90
1988;DHT22;12775;46.994;15.498;2023-04-24T07:17:37;14.50;99.90
1988;DHT22;12775;46.994;15.498;2023-04-24T07:20:05;14.40;99.90
1988;DHT22;12775;46.994;15.498;2023-04-24T07:22:33;14.40;99.90
1988;DHT22;12775;46.994;15.498;2023-04-24T07:25:00;14.40;99.90
1988;DHT22;12775;46.994;15.498;2023-04-24T07:27:27;14.40;99.90
1988;DHT22;12775;46.994;15.498;2023-04-24T07:29:55;14.50;99.90
1988;DHT22;12775;46.994;15.498;2023-04-24T07:32:22;14.40;99.90
1988;DHT22;12775;46.994;15.498;2023-04-24T07:34:50;14.50;99.90
1988;DHT22;12775;46.994;15.498;2023-04-24T07:37:17;14.50;99.90
1988;DHT22;12775;46.994;15.498;2023-04-24T07:39:44;14.50;99.90
1988;DHT22;12775;46.994;15.498;2023-04-24T07:42:12;14.50;99.90
1988;DHT22;12775;46.994;15.498;2023-04-24T07:44:39;14.50;99.90
1988;DHT22;12775;46.994;15.498;2023-04-24T07:47:07;14.50;99.90
1988;DHT22;12775;46.994;15.498;2023-04-24T07:49:34;14.50;99.90
1988;DHT22;12775;46.994;15.498;2023-04-24T07:52:01;14.50;99.90
1988;DHT22;12775;46.994;15.498;2023-04-24T07:54:28;14.50;99.90
1988;DHT22;12775;46.994;15.498;2023-04-24T07:56:55;14.50;99.90
1988;DHT22;12775;46.994;15.498;2023-04-24T07:59:23;14.60;99.90
1988;DHT22;12775;46.994;15.498;2023-04-24T08:01:50;14.60;99.90
1988;DHT22;12775;46.994;15.498;2023-04-24T08:04:18;14.60;99.90
1988;DHT22;12775;46.994;15.498;2023-04-24T08:06:45;14.60;99.90
1988;DHT22;12775;46.994;15.498;2023-04-24T08:09:13;14.50;99.90
1988;DHT22;12775;46.994;15.498;2023-04-24T08:11:41;14.50;99.90
1988;DHT22;12775;46.994;15.498;2023-04-24T08:14:08;14.50;99.90
1988;DHT22;12775;46.994;15.498;2023-04-24T08:16:36;14.40;99.90
1988;DHT22;12775;46.994;15.498;2023-04-24T08:19:03;14.40;99.90
1988;DHT22;12775;46.994;15.498;2023-04-24T08:21:31;14.30;99.90
1988;DHT22;12775;46.994;15.498;2023-04-24T08:23:58;14.30;99.90
1988;DHT22;12775;46.994;15.498;2023-04-24T08:26:25;14.30;99.90
1988;DHT22;12775;46.994;15.498;2023-04-24T08:28:52;14.20;99.90
1988;DHT22;12775;46.994;15.498;2023-04-24T08:31:19;14.20;99.90
1988;DHT22;12775;46.994;15.498;2023-04-24T08:33:47;14.20;99.90
1988;DHT22;12775;46.994;15.498;2023-04-24T08:36:14;14.20;99.90
1988;DHT22;12775;46.994;15.498;2023-04-24T08:38:41;14.20;99.90
1988;DHT22;12775;46.994;15.498;2023-04-24T08:41:07;14.30;99.90
1988;DHT22;12775;46.994;15.498;2023-04-24T08:43:34;14.30;99.90
1988;DHT22;12775;46.994;15.498;2023-04-24T08:46:01;14.30;99.90
1988;DHT22;12775;46.994;15.498;2023-04-24T08:48:27;14.30;99.90
1988;DHT22;12775;46.994;15.498;2023-04-24T08:50:55;14.30;99.90
1988;DHT22;12775;46.994;15.498;2023-04-24T08:53:22;14.20;99.90
1988;DHT22;12775;46.994;15.498;2023-04-24T08:55:50;14.10;99.90
1988;DHT22;12775;46.994;15.498;2023-04-24T08:58:17;14.10;99.90
1988;DHT22;12775;46.994;15.498;2023-04-24T09:00:44;14.10;99.90
1988;DHT22;12775;46.994;15.498;2023-04-24T09:03:13;14.10;99.90
1988;DHT22;12775;46.994;15.498;2023-04-24T09:05:39;14.20;99.90
1988;DHT22;12775;46.994;15.498;2023-04-24T09:08:05;14.10;99.90
1988;DHT22;12775;46.994;15.498;2023-04-24T09:10:32;14.20;99.90
1988;DHT22;12775;46.994;15.498;2023-04-24T09:12:59;14.30;99.90
1988;DHT22;12775;46.994;15.498;2023-04-24T09:15:27;14.30;99.90
1988;DHT22;12775;46.994;15.498;2023-04-24T09:17:55;14.40;99.90
1988;DHT22;12775;46.994;15.498;2023-04-24T09:20:22;14.50;99.90
1988;DHT22;12775;46.994;15.498;2023-04-24T09:22:52;14.50;99.90
1988;DHT22;12775;46.994;15.498;2023-04-24T09:25:16;14.70;99.90
1988;DHT22;12775;46.994;15.498;2023-04-24T09:27:44;14.70;99.90
1988;DHT22;12775;46.994;15.498;2023-04-24T09:30:12;14.80;99.90
1988;DHT22;12775;46.994;15.498;2023-04-24T09:32:39;14.90;99.90
1988;DHT22;12775;46.994;15.498;2023-04-24T09:35:11;14.90;99.90
1988;DHT22;12775;46.994;15.498;2023-04-24T09:37:39;14.90;99.90
1988;DHT22;12775;46.994;15.498;2023-04-24T09:40:11;15.00;99.90
1988;DHT22;12775;46.994;15.498;2023-04-24T09:42:38;14.90;99.90
1988;DHT22;12775;46.994;15.498;2023-04-24T09:45:08;14.90;99.90
1988;DHT22;12775;46.994;15.498;2023-04-24T09:47:37;15.00;99.90
1988;DHT22;12775;46.994;15.498;2023-04-24T09:50:10;15.10;99.90
1988;DHT22;12775;46.994;15.498;2023-04-24T09:52:40;15.10;99.90
1988;DHT22;12775;46.994;15.498;2023-04-24T09:55:14;15.20;99.90
1988;DHT22;12775;46.994;15.498;2023-04-24T10:00:17;15.30;99.90
1988;DHT22;12775;46.994;15.498;2023-04-24T10:02:42;15.40;99.90
1988;DHT22;12775;46.994;15.498;2023-04-24T10:05:11;15.50;99.90
1988;DHT22;12775;46.994;15.498;2023-04-24T10:07:38;15.40;99.90
1988;DHT22;12775;46.994;15.498;2023-04-24T10:10:06;15.50;99.90
1988;DHT22;12775;46.994;15.498;2023-04-24T10:12:33;15.60;99.90
1988;DHT22;12775;46.994;15.498;2023-04-24T10:15:01;15.60;99.90
1988;DHT22;12775;46.994;15.498;2023-04-24T10:17:28;15.50;99.90
1988;DHT22;12775;46.994;15.498;2023-04-24T10:19:55;15.60;99.90
1988;DHT22;12775;46.994;15.498;2023-04-24T10:22:22;15.60;99.90
1988;DHT22;12775;46.994;15.498;2023-04-24T10:24:49;15.80;99.90
1988;DHT22;12775;46.994;15.498;2023-04-24T10:27:17;15.90;99.90
1988;DHT22;12775;46.994;15.498;2023-04-24T10:29:45;16.00;99.90
1988;DHT22;12775;46.994;15.498;2023-04-24T10:32:12;16.10;99.90
1988;DHT22;12775;46.994;15.498;2023-04-24T10:34:40;16.10;99.90
1988;DHT22;12775;46.994;15.498;2023-04-24T10:37:07;16.00;99.90
1988;DHT22;12775;46.994;15.498;2023-04-24T10:39:34;16.10;99.90
1988;DHT22;12775;46.994;15.498;2023-04-24T10:42:01;16.20;99.90
1988;DHT22;12775;46.994;15.498;2023-04-24T10:44:35;16.30;99.90
1988;DHT22;12775;46.994;15.498;2023-04-24T10:46:56;16.40;99.90
1988;DHT22;12775;46.994;15.498;2023-04-24T10:49:28;16.50;99.90
1988;DHT22;12775;46.994;15.498;2023-04-24T10:51:57;16.70;99.90
1988;DHT22;12775;46.994;15.498;2023-04-24T10:54:29;16.80;99.90
1988;DHT22;12775;46.994;15.498;2023-04-24T10:59:35;17.00;99.90
1988;DHT22;12775;46.994;15.498;2023-04-24T11:02:03;17.30;99.90
1988;DHT22;12775;46.994;15.498;2023-04-24T11:04:30;17.20;99.90
1988;DHT22;12775;46.994;15.498;2023-04-24T11:06:58;17.20;98.70
1988;DHT22;12775;46.994;15.498;2023-04-24T11:09:27;17.40;98.30
1988;DHT22;12775;46.994;15.498;2023-04-24T11:14:29;17.70;97.00
1988;DHT22;12775;46.994;15.498;2023-04-24T11:16:56;17.70;97.00
1988;DHT22;12775;46.994;15.498;2023-04-24T11:19:24;18.00;97.20
1988;DHT22;12775;46.994;15.498;2023-04-24T11:21:58;18.00;97.10
1988;DHT22;12775;46.994;15.498;2023-04-24T11:27:14;18.40;94.80
1988;DHT22;12775;46.994;15.498;2023-04-24T11:29:46;18.40;94.80
1988;DHT22;12775;46.994;15.498;2023-04-24T11:32:16;18.50;93.80
1988;DHT22;12775;46.994;15.498;2023-04-24T11:34:45;18.50;93.80
1988;DHT22;12775;46.994;15.498;2023-04-24T11:37:10;18.50;92.80
1988;DHT22;12775;46.994;15.498;2023-04-24T11:39:38;18.60;93.50
1988;DHT22;12775;46.994;15.498;2023-04-24T11:42:05;18.60;94.20
1988;DHT22;12775;46.994;15.498;2023-04-24T11:44:32;18.60;94.20
1988;DHT22;12775;46.994;15.498;2023-04-24T11:46:59;18.60;94.30
1988;DHT22;12775;46.994;15.498;2023-04-24T11:49:26;18.50;94.30
1988;DHT22;12775;46.994;15.498;2023-04-24T11:51:55;18.50;91.70
1988;DHT22;12775;46.994;15.498;2023-04-24T11:54:22;18.50;91.50
1988;DHT22;12775;46.994;15.498;2023-04-24T11:56:49;18.50;92.70
1988;DHT22;12775;46.994;15.498;2023-04-24T11:59:17;18.40;92.50
1988;DHT22;12775;46.994;15.498;2023-04-24T12:01:45;18.40;93.10
1988;DHT22;12775;46.994;15.498;2023-04-24T12:04:12;18.30;93.40
1988;DHT22;12775;46.994;15.498;2023-04-24T12:06:39;18.20;92.60
1988;DHT22;12775;46.994;15.498;2023-04-24T12:09:06;18.20;93.10
1988;DHT22;12775;46.994;15.498;2023-04-24T12:11:34;18.20;94.30
1988;DHT22;12775;46.994;15.498;2023-04-24T12:14:10;18.10;94.30
1988;DHT22;12775;46.994;15.498;2023-04-24T12:16:38;18.00;93.90
1988;DHT22;12775;46.994;15.498;2023-04-24T12:19:05;18.00;94.40
1988;DHT22;12775;46.994;15.498;2023-04-24T12:21:32;17.90;93.90
1988;DHT22;12775;46.994;15.498;2023-04-24T12:23:59;17.90;93.90
1988;DHT22;12775;46.994;15.498;2023-04-24T12:26:26;17.90;93.70
1988;DHT22;12775;46.994;15.498;2023-04-24T12:28:55;18.00;93.70
1988;DHT22;12775;46.994;15.498;2023-04-24T12:31:23;17.90;94.30
1988;DHT22;12775;46.994;15.498;2023-04-24T12:33:50;17.70;93.80
1988;DHT22;12775;46.994;15.498;2023-04-24T12:36:18;17.70;93.80
1988;DHT22;12775;46.994;15.498;2023-04-24T12:38:45;17.70;93.20
1988;DHT22;12775;46.994;15.498;2023-04-24T12:41:13;17.60;94.30
1988;DHT22;12775;46.994;15.498;2023-04-24T12:43:55;17.50;94.60
1988;DHT22;12775;46.994;15.498;2023-04-24T12:46:22;17.50;94.50
1988;DHT22;12775;46.994;15.498;2023-04-24T12:48:51;17.50;94.10
1988;DHT22;12775;46.994;15.498;2023-04-24T12:51:18;17.40;94.30
1988;DHT22;12775;46.994;15.498;2023-04-24T12:53:45;17.40;94.90
1988;DHT22;12775;46.994;15.498;2023-04-24T12:56:13;17.40;94.60
1988;DHT22;12775;46.994;15.498;2023-04-24T12:58:40;17.50;94.40
1988;DHT22;12775;46.994;15.498;2023-04-24T13:01:07;17.40;95.20
1988;DHT22;12775;46.994;15.498;2023-04-24T13:03:35;17.40;94.90
1988;DHT22;12775;46.994;15.498;2023-04-24T13:06:01;17.40;94.80
1988;DHT22;12775;46.994;15.498;2023-04-24T13:08:29;17.50;95.40
1988;DHT22;12775;46.994;15.498;2023-04-24T13:10:56;17.60;93.70
1988;DHT22;12775;46.994;15.498;2023-04-24T13:13:24;17.70;94.90
1988;DHT22;12775;46.994;15.498;2023-04-24T13:15:51;17.60;93.90
1988;DHT22;12775;46.994;15.498;2023-04-24T13:18:18;17.70;93.10
1988;DHT22;12775;46.994;15.498;2023-04-24T13:20:46;17.70;93.60
1988;DHT22;12775;46.994;15.498;2023-04-24T13:23:13;17.80;93.10
1988;DHT22;12775;46.994;15.498;2023-04-24T13:25:41;17.80;94.20
1988;DHT22;12775;46.994;15.498;2023-04-24T13:28:09;17.70;93.10
1988;DHT22;12775;46.994;15.498;2023-04-24T13:30:37;17.50;93.40
1988;DHT22;12775;46.994;15.498;2023-04-24T13:33:04;17.50;93.60
1988;DHT22;12775;46.994;15.498;2023-04-24T13:35:32;17.20;93.30
1988;DHT22;12775;46.994;15.498;2023-04-24T13:37:59;16.90;93.30
1988;DHT22;12775;46.994;15.498;2023-04-24T13:40:27;16.90;94.50
1988;DHT22;12775;46.994;15.498;2023-04-24T13:42:55;16.90;94.00
1988;DHT22;12775;46.994;15.498;2023-04-24T13:45:23;17.00;94.70
1988;DHT22;12775;46.994;15.498;2023-04-24T13:47:50;17.00;95.00
1988;DHT22;12775;46.994;15.498;2023-04-24T13:50:18;17.10;94.90
1988;DHT22;12775;46.994;15.498;2023-04-24T13:52:45;17.20;94.80
1988;DHT22;12775;46.994;15.498;2023-04-24T13:55:12;17.20;94.50
1988;DHT22;12775;46.994;15.498;2023-04-24T13:57:40;17.20;94.40
1988;DHT22;12775;46.994;15.498;2023-04-24T14:00:08;17.20;94.80
1988;DHT22;12775;46.994;15.498;2023-04-24T14:02:35;17.10;94.90
1988;DHT22;12775;46.994;15.498;2023-04-24T14:05:04;17.10;95.00
1988;DHT22;12775;46.994;15.498;2023-04-24T14:07:31;17.10;95.10
1988;DHT22;12775;46.994;15.498;2023-04-24T14:09:59;17.10;94.90
1988;DHT22;12775;46.994;15.498;2023-04-24T14:12:26;17.00;95.50
1988;DHT22;12775;46.994;15.498;2023-04-24T14:14:52;17.00;95.50
1988;DHT22;12775;46.994;15.498;2023-04-24T14:17:21;16.80;95.90
1988;DHT22;12775;46.994;15.498;2023-04-24T14:19:47;16.70;95.90
1988;DHT22;12775;46.994;15.498;2023-04-24T14:22:15;16.90;96.30
1988;DHT22;12775;46.994;15.498;2023-04-24T14:24:42;16.90;95.90
1988;DHT22;12775;46.994;15.498;2023-04-24T14:27:09;16.70;96.00
1988;DHT22;12775;46.994;15.498;2023-04-24T14:29:37;16.50;96.50
1988;DHT22;12775;46.994;15.498;2023-04-24T14:32:05;16.50;96.30
1988;DHT22;12775;46.994;15.498;2023-04-24T14:34:34;16.60;96.50
1988;DHT22;12775;46.994;15.498;2023-04-24T14:37:01;16.60;96.90
1988;DHT22;12775;46.994;15.498;2023-04-24T14:39:28;16.60;96.60
1988;DHT22;12775;46.994;15.498;2023-04-24T14:41:56;16.30;96.70
1988;DHT22;12775;46.994;15.498;2023-04-24T14:44:23;16.40;96.80
1988;DHT22;12775;46.994;15.498;2023-04-24T14:46:50;16.40;96.90
1988;DHT22;12775;46.994;15.498;2023-04-24T14:49:18;16.40;96.80
1988;DHT22;12775;46.994;15.498;2023-04-24T14:51:45;16.30;97.00
1988;DHT22;12775;46.994;15.498;2023-04-24T14:54:12;16.20;97.20
1988;DHT22;12775;46.994;15.498;2023-04-24T14:56:40;16.10;96.80
1988;DHT22;12775;46.994;15.498;2023-04-24T14:59:06;16.10;96.80
1988;DHT22;12775;46.994;15.498;2023-04-24T15:01:34;16.00;97.20
1988;DHT22;12775;46.994;15.498;2023-04-24T15:04:01;15.90;97.80
1988;DHT22;12775;46.994;15.498;2023-04-24T15:06:29;15.80;97.60
1988;DHT22;12775;46.994;15.498;2023-04-24T15:08:56;15.90;97.30
1988;DHT22;12775;46.994;15.498;2023-04-24T15:11:23;16.00;97.00
1988;DHT22;12775;46.994;15.498;2023-04-24T15:13:51;16.10;97.30
1988;DHT22;12775;46.994;15.498;2023-04-24T15:16:18;16.20;96.90
1988;DHT22;12775;46.994;15.498;2023-04-24T15:18:45;16.10;96.90
1988;DHT22;12775;46.994;15.498;2023-04-24T15:21:13;16.20;96.90
1988;DHT22;12775;46.994;15.498;2023-04-24T15:23:40;16.20;96.80
1988;DHT22;12775;46.994;15.498;2023-04-24T15:26:09;16.30;96.60
1988;DHT22;12775;46.994;15.498;2023-04-24T15:28:36;16.40;96.50
1988;DHT22;12775;46.994;15.498;2023-04-24T15:31:03;16.40;96.40
1988;DHT22;12775;46.994;15.498;2023-04-24T15:33:31;16.50;96.50
1988;DHT22;12775;46.994;15.498;2023-04-24T15:35:58;16.60;96.10
1988;DHT22;12775;46.994;15.498;2023-04-24T15:38:25;16.50;96.40
1988;DHT22;12775;46.994;15.498;2023-04-24T15:40:53;16.50;96.60